sensor_id;sensor_type;location;lat;lon;timestamp;P1;durP1;ratioP1;P2;durP2;ratioP2
938;SDS011;456;53.584;9.968;2023-05-14T16:44:10;3.67;;;3.37;;
938;SDS011;456;53.584;9.968;2023-05-14T16:46:36;4.60;;;4.23;;
938;SDS011;456;53.584;9.968;2023-05-14T16:49:02;4.00;;;3.80;;
938;SDS011;456;53.584;9.968;2023-05-14T16:51:27;4.20;;;3.90;;
938;SDS011;456;53.584;9.968;2023-05-14T16:53:53;3.80;;;3.57;;
938;SDS011;456;53.584;9.968;2023-05-14T16:56:18;4.10;;;3.70;;
938;SDS011;456;53.584;9.968;2023-05-14T16:58:45;4.13;;;3.87;;
938;SDS011;456;53.584;9.968;2023-05-14T17:01:10;3.63;;;3.33;;
938;SDS011;456;53.584;9.968;2023-05-14T17:03:36;4.20;;;3.90;;
938;SDS011;456;53.584;9.968;2023-05-14T17:06:02;3.70;;;3.50;;
938;SDS011;456;53.584;9.968;2023-05-14T17:08:28;4.77;;;3.93;;
938;SDS011;456;53.584;9.968;2023-05-14T17:10:57;3.60;;;3.40;;
938;SDS011;456;53.584;9.968;2023-05-14T17:13:23;4.43;;;4.13;;
938;SDS011;456;53.584;9.968;2023-05-14T17:15:48;3.50;;;3.10;;
938;SDS011;456;53.584;9.968;2023-05-14T17:18:14;4.10;;;3.80;;
938;SDS011;456;53.584;9.968;2023-05-14T17:20:40;3.50;;;3.20;;
938;SDS011;456;53.584;9.968;2023-05-14T17:23:05;4.30;;;3.97;;
938;SDS011;456;53.584;9.968;2023-05-14T17:25:31;3.97;;;3.67;;
938;SDS011;456;53.584;9.968;2023-05-14T17:27:57;4.17;;;3.87;;
938;SDS011;456;53.584;9.968;2023-05-14T17:30:23;4.20;;;3.90;;
938;SDS011;456;53.584;9.968;2023-05-14T17:32:49;4.20;;;3.90;;
938;SDS011;456;53.584;9.968;2023-05-14T17:35:15;3.70;;;3.40;;
938;SDS011;456;53.584;9.968;2023-05-14T17:37:40;4.40;;;4.00;;
938;SDS011;456;53.584;9.968;2023-05-14T17:40:07;4.10;;;3.80;;
938;SDS011;456;53.584;9.968;2023-05-14T17:42:33;4.70;;;4.30;;
938;SDS011;456;53.584;9.968;2023-05-14T17:44:59;3.90;;;3.60;;
938;SDS011;456;53.584;9.968;2023-05-14T17:47:25;4.10;;;3.80;;
938;SDS011;456;53.584;9.968;2023-05-14T17:49:51;4.57;;;4.27;;
938;SDS011;456;53.584;9.968;2023-05-14T17:52:16;4.03;;;3.73;;
938;SDS011;456;53.584;9.968;2023-05-14T17:54:42;4.20;;;3.90;;
938;SDS011;456;53.584;9.968;2023-05-14T17:57:08;4.40;;;4.10;;
938;SDS011;456;53.584;9.968;2023-05-14T17:59:33;3.90;;;3.60;;
938;SDS011;456;53.584;9.968;2023-05-14T18:01:59;4.10;;;3.80;;
938;SDS011;456;53.584;9.968;2023-05-14T18:04:24;4.30;;;4.00;;
938;SDS011;456;53.584;9.968;2023-05-14T18:06:50;3.87;;;3.57;;
938;SDS011;456;53.584;9.968;2023-05-14T18:09:16;3.87;;;3.53;;
938;SDS011;456;53.584;9.968;2023-05-14T18:11:41;4.13;;;3.83;;
938;SDS011;456;53.584;9.968;2023-05-14T18:14:07;4.40;;;4.10;;
938;SDS011;456;53.584;9.968;2023-05-14T18:16:32;4.60;;;4.20;;
938;SDS011;456;53.584;9.968;2023-05-14T18:18:58;3.80;;;3.60;;
938;SDS011;456;53.584;9.968;2023-05-14T18:21:26;4.50;;;4.20;;
938;SDS011;456;53.584;9.968;2023-05-14T18:23:52;3.60;;;3.40;;
938;SDS011;456;53.584;9.968;2023-05-14T18:26:18;3.97;;;3.67;;
938;SDS011;456;53.584;9.968;2023-05-14T18:28:43;4.10;;;3.80;;
938;SDS011;456;53.584;9.968;2023-05-14T18:31:09;5.13;;;4.73;;
938;SDS011;456;53.584;9.968;2023-05-14T18:33:35;4.37;;;3.97;;
938;SDS011;456;53.584;9.968;2023-05-14T18:36:00;4.17;;;3.87;;
938;SDS011;456;53.584;9.968;2023-05-14T18:38:26;4.17;;;3.87;;
938;SDS011;456;53.584;9.968;2023-05-14T18:40:51;4.53;;;4.23;;
938;SDS011;456;53.584;9.968;2023-05-14T18:43:17;4.90;;;4.50;;
938;SDS011;456;53.584;9.968;2023-05-14T18:45:44;4.60;;;4.30;;
938;SDS011;456;53.584;9.968;2023-05-14T18:48:11;4.67;;;4.37;;
938;SDS011;456;53.584;9.968;2023-05-14T18:50:37;4.63;;;4.30;;
938;SDS011;456;53.584;9.968;2023-05-14T18:53:02;4.20;;;3.97;;
938;SDS011;456;53.584;9.968;2023-05-14T18:55:28;5.17;;;4.77;;
938;SDS011;456;53.584;9.968;2023-05-14T18:57:53;4.33;;;4.03;;
938;SDS011;456;53.584;9.968;2023-05-14T19:00:19;4.43;;;4.07;;
938;SDS011;456;53.584;9.968;2023-05-14T19:02:45;4.30;;;4.00;;
938;SDS011;456;53.584;9.968;2023-05-14T19:05:10;4.50;;;4.20;;
938;SDS011;456;53.584;9.968;2023-05-14T19:07:36;4.60;;;4.30;;
938;SDS011;456;53.584;9.968;2023-05-14T19:10:02;4.30;;;4.00;;
938;SDS011;456;53.584;9.968;2023-05-14T19:12:28;4.60;;;4.30;;
938;SDS011;456;53.584;9.968;2023-05-14T19:14:55;4.40;;;4.10;;
938;SDS011;456;53.584;9.968;2023-05-14T19:17:21;3.97;;;3.67;;
938;SDS011;456;53.584;9.968;2023-05-14T19:19:47;4.40;;;4.10;;
938;SDS011;456;53.584;9.968;2023-05-14T19:22:13;5.10;;;4.80;;
938;SDS011;456;53.584;9.968;2023-05-14T19:24:38;4.57;;;4.27;;
938;SDS011;456;53.584;9.968;2023-05-14T19:27:04;4.00;;;3.70;;
938;SDS011;456;53.584;9.968;2023-05-14T19:29:30;4.70;;;4.40;;
938;SDS011;456;53.584;9.968;2023-05-14T19:31:58;4.33;;;3.83;;
938;SDS011;456;53.584;9.968;2023-05-14T19:34:23;4.40;;;4.10;;
938;SDS011;456;53.584;9.968;2023-05-14T19:36:50;4.97;;;4.57;;
938;SDS011;456;53.584;9.968;2023-05-14T19:39:16;5.40;;;4.90;;
938;SDS011;456;53.584;9.968;2023-05-14T19:41:42;4.27;;;3.97;;
938;SDS011;456;53.584;9.968;2023-05-14T19:44:07;4.13;;;3.83;;
938;SDS011;456;53.584;9.968;2023-05-14T19:46:33;5.20;;;4.83;;
938;SDS011;456;53.584;9.968;2023-05-14T19:48:58;4.60;;;4.30;;
938;SDS011;456;53.584;9.968;2023-05-14T19:51:24;4.90;;;4.50;;
938;SDS011;456;53.584;9.968;2023-05-14T19:53:49;4.93;;;4.53;;
938;SDS011;456;53.584;9.968;2023-05-14T19:56:15;4.50;;;4.20;;
938;SDS011;456;53.584;9.968;2023-05-14T19:58:41;4.20;;;3.90;;
938;SDS011;456;53.584;9.968;2023-05-14T20:01:07;4.30;;;4.00;;
938;SDS011;456;53.584;9.968;2023-05-14T20:03:32;4.43;;;4.13;;
938;SDS011;456;53.584;9.968;2023-05-14T20:05:58;4.07;;;3.77;;
938;SDS011;456;53.584;9.968;2023-05-14T20:08:24;5.13;;;4.73;;
938;SDS011;456;53.584;9.968;2023-05-14T20:10:50;4.63;;;4.33;;
938;SDS011;456;53.584;9.968;2023-05-14T20:13:16;4.73;;;4.43;;
938;SDS011;456;53.584;9.968;2023-05-14T20:15:42;4.90;;;4.40;;
938;SDS011;456;53.584;9.968;2023-05-14T20:18:08;5.27;;;4.77;;
938;SDS011;456;53.584;9.968;2023-05-14T20:20:33;4.97;;;4.67;;
938;SDS011;456;53.584;9.968;2023-05-14T20:22:59;4.80;;;4.40;;
938;SDS011;456;53.584;9.968;2023-05-14T20:25:25;4.90;;;4.60;;
938;SDS011;456;53.584;9.968;2023-05-14T20:27:50;4.87;;;4.50;;
938;SDS011;456;53.584;9.968;2023-05-14T20:30:16;4.20;;;3.90;;
938;SDS011;456;53.584;9.968;2023-05-14T20:32:42;5.53;;;5.10;;
938;SDS011;456;53.584;9.968;2023-05-14T20:35:08;5.10;;;4.70;;
938;SDS011;456;53.584;9.968;2023-05-14T20:37:34;4.47;;;4.17;;
938;SDS011;456;53.584;9.968;2023-05-14T20:40:00;5.03;;;4.63;;
938;SDS011;456;53.584;9.968;2023-05-14T20:42:28;4.90;;;4.60;;
938;SDS011;456;53.584;9.968;2023-05-14T20:44:53;5.03;;;4.70;;
938;SDS011;456;53.584;9.968;2023-05-14T20:47:19;4.73;;;4.33;;
938;SDS011;456;53.584;9.968;2023-05-14T20:49:50;4.70;;;4.40;;
938;SDS011;456;53.584;9.968;2023-05-14T20:52:16;4.77;;;4.47;;
938;SDS011;456;53.584;9.968;2023-05-14T20:54:42;4.53;;;4.23;;
938;SDS011;456;53.584;9.968;2023-05-14T20:57:08;4.60;;;4.30;;
938;SDS011;456;53.584;9.968;2023-05-14T20:59:37;5.63;;;5.23;;
938;SDS011;456;53.584;9.968;2023-05-14T21:02:02;5.00;;;4.60;;
938;SDS011;456;53.584;9.968;2023-05-14T21:04:28;4.70;;;4.40;;
938;SDS011;456;53.584;9.968;2023-05-14T21:06:54;4.60;;;4.30;;
938;SDS011;456;53.584;9.968;2023-05-14T21:09:19;5.07;;;4.63;;
938;SDS011;456;53.584;9.968;2023-05-14T21:11:47;5.37;;;4.97;;
938;SDS011;456;53.584;9.968;2023-05-14T21:14:12;4.97;;;4.67;;
938;SDS011;456;53.584;9.968;2023-05-14T21:16:38;4.67;;;4.27;;
938;SDS011;456;53.584;9.968;2023-05-14T21:19:03;5.07;;;4.77;;
938;SDS011;456;53.584;9.968;2023-05-14T21:21:29;5.00;;;4.70;;
938;SDS011;456;53.584;9.968;2023-05-14T21:23:54;4.90;;;4.60;;
938;SDS011;456;53.584;9.968;2023-05-14T21:26:20;4.90;;;4.50;;
938;SDS011;456;53.584;9.968;2023-05-14T21:28:46;5.00;;;4.60;;
938;SDS011;456;53.584;9.968;2023-05-14T21:31:12;5.40;;;4.90;;
938;SDS011;456;53.584;9.968;2023-05-14T21:33:37;4.70;;;4.40;;
938;SDS011;456;53.584;9.968;2023-05-14T21:36:04;5.00;;;4.60;;
938;SDS011;456;53.584;9.968;2023-05-14T21:38:34;5.37;;;4.97;;
938;SDS011;456;53.584;9.968;2023-05-14T21:40:59;4.83;;;4.53;;
938;SDS011;456;53.584;9.968;2023-05-14T21:43:25;5.20;;;4.80;;
938;SDS011;456;53.584;9.968;2023-05-14T21:45:51;4.73;;;4.43;;
938;SDS011;456;53.584;9.968;2023-05-14T21:48:16;5.20;;;4.87;;
938;SDS011;456;53.584;9.968;2023-05-14T21:50:42;5.07;;;4.67;;
938;SDS011;456;53.584;9.968;2023-05-14T21:53:07;5.87;;;5.27;;
938;SDS011;456;53.584;9.968;2023-05-14T21:55:33;4.73;;;4.43;;
938;SDS011;456;53.584;9.968;2023-05-14T21:57:59;5.30;;;4.90;;
938;SDS011;456;53.584;9.968;2023-05-14T22:00:26;5.20;;;4.83;;
938;SDS011;456;53.584;9.968;2023-05-14T22:02:52;5.30;;;4.90;;
938;SDS011;456;53.584;9.968;2023-05-14T22:05:18;4.80;;;4.50;;
938;SDS011;456;53.584;9.968;2023-05-14T22:07:43;4.87;;;4.57;;
938;SDS011;456;53.584;9.968;2023-05-14T22:10:10;5.60;;;5.10;;
938;SDS011;456;53.584;9.968;2023-05-14T22:12:37;5.00;;;4.60;;
938;SDS011;456;53.584;9.968;2023-05-14T22:15:04;4.77;;;4.47;;
938;SDS011;456;53.584;9.968;2023-05-14T22:17:30;5.23;;;4.83;;
938;SDS011;456;53.584;9.968;2023-05-14T22:19:58;4.70;;;4.40;;
938;SDS011;456;53.584;9.968;2023-05-14T22:22:24;5.70;;;5.30;;
938;SDS011;456;53.584;9.968;2023-05-14T22:24:49;5.50;;;5.10;;
938;SDS011;456;53.584;9.968;2023-05-14T22:27:15;4.63;;;4.33;;
938;SDS011;456;53.584;9.968;2023-05-14T22:29:41;6.07;;;5.50;;
938;SDS011;456;53.584;9.968;2023-05-14T22:32:07;6.00;;;5.50;;
938;SDS011;456;53.584;9.968;2023-05-14T22:34:34;5.20;;;4.77;;
938;SDS011;456;53.584;9.968;2023-05-14T22:37:00;5.00;;;4.60;;
938;SDS011;456;53.584;9.968;2023-05-14T22:39:26;5.20;;;4.90;;
938;SDS011;456;53.584;9.968;2023-05-14T22:41:52;5.10;;;4.70;;
938;SDS011;456;53.584;9.968;2023-05-14T22:44:19;5.50;;;5.10;;
938;SDS011;456;53.584;9.968;2023-05-14T22:46:45;5.40;;;5.00;;
938;SDS011;456;53.584;9.968;2023-05-14T22:49:11;5.53;;;5.03;;
938;SDS011;456;53.584;9.968;2023-05-14T22:51:36;5.37;;;4.97;;
938;SDS011;456;53.584;9.968;2023-05-14T22:54:02;5.77;;;5.33;;
938;SDS011;456;53.584;9.968;2023-05-14T22:56:28;5.73;;;5.33;;
938;SDS011;456;53.584;9.968;2023-05-14T22:58:54;6.03;;;5.63;;
938;SDS011;456;53.584;9.968;2023-05-14T23:01:19;5.20;;;4.90;;
938;SDS011;456;53.584;9.968;2023-05-14T23:03:45;5.33;;;4.93;;
938;SDS011;456;53.584;9.968;2023-05-14T23:06:10;6.13;;;5.63;;
938;SDS011;456;53.584;9.968;2023-05-14T23:08:38;6.47;;;5.97;;
938;SDS011;456;53.584;9.968;2023-05-14T23:11:04;5.93;;;5.43;;
938;SDS011;456;53.584;9.968;2023-05-14T23:13:29;6.03;;;5.53;;
938;SDS011;456;53.584;9.968;2023-05-14T23:15:55;5.27;;;4.97;;
938;SDS011;456;53.584;9.968;2023-05-14T23:18:21;5.80;;;5.40;;
938;SDS011;456;53.584;9.968;2023-05-14T23:20:47;5.50;;;5.10;;
938;SDS011;456;53.584;9.968;2023-05-14T23:23:13;5.50;;;5.10;;
938;SDS011;456;53.584;9.968;2023-05-14T23:25:39;6.10;;;5.60;;
938;SDS011;456;53.584;9.968;2023-05-14T23:28:05;5.57;;;5.17;;
938;SDS011;456;53.584;9.968;2023-05-14T23:30:30;5.87;;;5.37;;
938;SDS011;456;53.584;9.968;2023-05-14T23:32:56;5.70;;;5.30;;
938;SDS011;456;53.584;9.968;2023-05-14T23:35:22;5.20;;;4.80;;
938;SDS011;456;53.584;9.968;2023-05-14T23:37:48;5.60;;;5.30;;
938;SDS011;456;53.584;9.968;2023-05-14T23:40:15;5.87;;;5.37;;
938;SDS011;456;53.584;9.968;2023-05-14T23:42:41;5.77;;;5.37;;
938;SDS011;456;53.584;9.968;2023-05-14T23:45:08;5.87;;;5.37;;
938;SDS011;456;53.584;9.968;2023-05-14T23:47:34;5.73;;;5.23;;
938;SDS011;456;53.584;9.968;2023-05-14T23:50:00;5.53;;;5.13;;
938;SDS011;456;53.584;9.968;2023-05-14T23:52:26;5.73;;;5.33;;
938;SDS011;456;53.584;9.968;2023-05-14T23:54:52;6.20;;;5.70;;
938;SDS011;456;53.584;9.968;2023-05-14T23:57:18;5.37;;;5.07;;
938;SDS011;456;53.584;9.968;2023-05-14T23:59:43;6.00;;;5.50;;
